首页
METAR-TAF:

METAR-TAF

机场 :

哈茨菲尔德-杰克逊亚特兰大国际机场

亚特兰大, 喬治亞, 美国

纬度: 33-38-25N, 经度: 084-25-37W, 海拔: 313米

当前天气观测

该预报发布于37分钟前的02:52 UTC
风速5节,风向
温度 12°C
湿度 50%
气压 1018 hPa
能見度: 16.1公里
散云层高于3600英尺
多云层高于4600英尺

METAR: KATL 170252Z 01005KT 10SM SCT036 BKN046 12/02 A3007 RMK AO2 SLP186 T01220017 51010 $

时间: 22:29 (03:29 UTC)

预报

该预报发布于1小时和51分钟前的01:38 UTC
预报有效从17日的 02点(UTC)到 18日的 06点(UTC)
风速7节,风向
能見度: 10公里
多云层高于4000英尺
从 17日的 0500点(UTC)
风速6节,风向东北
能見度: 10公里
散云层高于4000英尺
从 17日的 1900点(UTC)
风速5节,风向西北
能見度: 10公里
少量云层高于25000英尺
从 18日的 0000点(UTC)
风速3节,风向多变
能見度: 10公里
散云层高于25000英尺

TAF: KATL 170138Z 1702/1806 01007KT P6SM BKN040 FM170500 04006KT P6SM SCT040 FM171900 32005KT P6SM FEW250 FM180000 VRB03KT P6SM SCT250

超过4000个机场的气象观测和天气预报(METAR&TAF报告)。

可查询的气象台以黄色和红色小点在地图上表示。

将鼠标移到小点上方,可查看气象台名称。

然后点击查看天气观测和预报。

如需切换地图:点击带黑十字的绿色按钮放大地图;点击带横线的绿色按钮缩小地图;或者点击绿色箭头查看邻近地区的地图。


METAR-TAF: